createdAt,value
2019-02-05T00:01:47.456Z,6.97
2019-02-05T00:04:16.555Z,6.07
2019-02-05T00:06:45.672Z,7.03
2019-02-05T00:09:14.719Z,5.90
2019-02-05T00:11:43.779Z,6.90
2019-02-05T00:14:12.849Z,6.67
2019-02-05T00:16:42.224Z,6.83
2019-02-05T00:19:11.310Z,6.50
2019-02-05T00:21:40.402Z,6.43
2019-02-05T00:24:09.418Z,9.83
2019-02-05T00:26:38.537Z,5.00
2019-02-05T00:29:07.606Z,5.97
2019-02-05T00:31:36.937Z,6.17
2019-02-05T00:34:06.040Z,6.53
2019-02-05T00:36:35.118Z,6.53
2019-02-05T00:39:05.453Z,6.97
2019-02-05T00:41:34.607Z,10.17
2019-02-05T00:44:03.684Z,8.83
2019-02-05T00:46:33.255Z,8.20
2019-02-05T00:49:02.302Z,7.80
2019-02-05T00:51:31.382Z,7.00
2019-02-05T00:54:00.436Z,7.90
2019-02-05T00:56:29.434Z,6.57
2019-02-05T00:58:58.460Z,9.63
2019-02-05T01:01:27.866Z,6.80
2019-02-05T01:03:56.935Z,7.73
2019-02-05T01:06:26.015Z,6.93
2019-02-05T01:08:55.197Z,6.57
2019-02-05T01:11:24.241Z,8.40
2019-02-05T01:13:53.318Z,7.30
2019-02-05T01:16:22.621Z,6.77
2019-02-05T01:18:51.745Z,7.33
2019-02-05T01:21:20.796Z,6.63
2019-02-05T01:23:49.790Z,6.87
2019-02-05T01:26:28.698Z,8.00
2019-02-05T01:28:49.573Z,6.67
2019-02-05T01:31:18.814Z,6.90
2019-02-05T01:33:47.889Z,7.50
2019-02-05T01:36:16.917Z,6.80
2019-02-05T01:38:45.947Z,7.23
2019-02-05T01:41:14.987Z,6.43
2019-02-05T01:43:43.998Z,7.07
2019-02-05T01:46:13.146Z,6.33
2019-02-05T01:48:42.180Z,8.57
2019-02-05T01:51:11.251Z,8.57
2019-02-05T01:53:40.262Z,10.17
2019-02-05T01:56:09.278Z,7.60
2019-02-05T01:58:38.317Z,7.70
2019-02-05T02:01:07.615Z,7.87
2019-02-05T02:03:36.619Z,9.07
2019-02-05T02:06:05.569Z,8.43
2019-02-05T02:08:34.557Z,7.63
2019-02-05T02:11:03.599Z,9.30
2019-02-05T02:13:32.602Z,7.33
2019-02-05T02:16:01.933Z,8.20
2019-02-05T02:18:31.051Z,7.43
2019-02-05T02:21:00.130Z,10.67
2019-02-05T02:23:29.243Z,8.53
2019-02-05T02:25:58.238Z,8.27
2019-02-05T02:28:27.247Z,8.03
2019-02-05T02:30:56.478Z,8.30
2019-02-05T02:33:25.543Z,8.60
2019-02-05T02:35:54.447Z,7.53
2019-02-05T02:38:23.499Z,7.30
2019-02-05T02:40:52.650Z,8.47
2019-02-05T02:43:21.643Z,8.03
2019-02-05T02:45:50.637Z,8.63
2019-02-05T02:48:19.678Z,8.83
2019-02-05T02:50:48.686Z,8.00
2019-02-05T02:53:17.730Z,6.97
2019-02-05T02:55:46.722Z,8.67
2019-02-05T02:58:15.625Z,8.97
2019-02-05T03:00:44.642Z,8.27
2019-02-05T03:03:13.621Z,8.57
2019-02-05T03:05:44.357Z,8.27
2019-02-05T03:08:13.464Z,9.40
2019-02-05T03:10:42.456Z,7.87
2019-02-05T03:13:11.438Z,8.20
2019-02-05T03:15:40.442Z,8.17
2019-02-05T03:18:09.448Z,7.50
2019-02-05T03:20:38.456Z,8.70
2019-02-05T03:23:07.387Z,8.67
2019-02-05T03:25:36.429Z,7.70
2019-02-05T03:28:05.412Z,9.33
2019-02-05T03:30:34.384Z,8.97
2019-02-05T03:33:03.457Z,9.67
2019-02-05T03:35:32.392Z,10.73
2019-02-05T03:38:01.688Z,9.23
2019-02-05T03:41:03.941Z,9.60
2019-02-05T03:43:33.171Z,10.37
2019-02-05T03:46:03.957Z,9.43
2019-02-05T03:48:33.464Z,9.43
2019-02-05T03:51:10.752Z,9.00
2019-02-05T03:53:41.718Z,9.33
2019-02-05T03:56:54.299Z,8.43
2019-02-05T03:59:56.038Z,10.83
2019-02-05T04:03:00.478Z,9.93
2019-02-05T04:05:47.431Z,9.03
2019-02-05T04:08:51.366Z,9.83
2019-02-05T04:12:01.668Z,9.37
2019-02-05T04:15:24.294Z,12.87
2019-02-05T04:18:41.325Z,10.10
2019-02-05T04:21:46.788Z,10.07
2019-02-05T04:25:02.839Z,12.90
2019-02-05T04:28:01.560Z,11.37
2019-02-05T04:31:10.549Z,10.90
2019-02-05T04:34:16.403Z,11.63
2019-02-05T04:37:26.212Z,7.90
2019-02-05T04:40:21.916Z,8.70
2019-02-05T04:43:20.103Z,11.57
2019-02-05T04:46:14.757Z,9.57
2019-02-05T04:49:18.761Z,9.50
2019-02-05T04:52:34.868Z,10.03
2019-02-05T04:55:40.422Z,11.80
2019-02-05T04:58:50.984Z,10.97
2019-02-05T05:01:45.842Z,12.50
2019-02-05T05:04:41.028Z,10.60
2019-02-05T05:07:47.325Z,12.47
2019-02-05T05:10:16.345Z,12.40
2019-02-05T05:12:45.365Z,12.50
2019-02-05T05:15:14.414Z,12.37
2019-02-05T05:17:43.485Z,12.87
2019-02-05T05:20:13.052Z,12.43
2019-02-05T05:22:42.118Z,10.97
2019-02-05T05:25:11.772Z,13.93
2019-02-05T05:27:40.823Z,12.80
2019-02-05T05:30:16.356Z,13.47
2019-02-05T05:32:45.394Z,16.53
2019-02-05T05:35:14.376Z,16.67
2019-02-05T05:37:43.425Z,11.83
2019-02-05T05:40:12.539Z,12.03
2019-02-05T05:42:41.569Z,15.67
2019-02-05T05:45:13.136Z,17.07
2019-02-05T05:47:42.212Z,15.83
2019-02-05T05:50:13.893Z,13.57
2019-02-05T05:52:42.871Z,14.93
2019-02-05T05:55:12.198Z,15.67
2019-02-05T05:57:41.193Z,14.70
2019-02-05T06:00:16.173Z,16.47
2019-02-05T06:02:45.190Z,15.83
2019-02-05T06:05:15.404Z,15.23
2019-02-05T06:07:44.354Z,15.60
2019-02-05T06:10:14.049Z,16.30
2019-02-05T06:12:43.076Z,16.10
2019-02-05T06:15:12.192Z,16.53
2019-02-05T06:17:42.034Z,16.20
2019-02-05T06:20:13.446Z,18.27
2019-02-05T06:22:42.483Z,14.83
2019-02-05T06:25:11.820Z,14.53
2019-02-05T06:27:40.848Z,16.00
2019-02-05T06:30:10.814Z,17.60
2019-02-05T06:32:39.900Z,16.83
2019-02-05T06:35:08.995Z,18.40
2019-02-05T06:37:38.013Z,18.53
2019-02-05T06:40:07.826Z,16.00
2019-02-05T06:42:36.826Z,16.70
2019-02-05T06:45:06.679Z,18.73
2019-02-05T06:47:35.738Z,17.20
2019-02-05T06:50:05.481Z,17.03
2019-02-05T06:52:34.542Z,20.20
2019-02-05T06:55:03.625Z,18.87
2019-02-05T06:57:32.930Z,24.27
2019-02-05T07:00:02.017Z,18.13
2019-02-05T07:02:31.081Z,18.60
2019-02-05T07:05:00.074Z,19.80
2019-02-05T07:07:29.087Z,21.53
2019-02-05T07:09:58.121Z,18.63
2019-02-05T07:12:27.213Z,19.80
2019-02-05T07:14:56.277Z,20.57
2019-02-05T07:17:25.368Z,17.80
2019-02-05T07:19:54.397Z,18.47
2019-02-05T07:22:23.456Z,18.00
2019-02-05T07:24:52.473Z,20.07
2019-02-05T07:27:21.515Z,22.60
2019-02-05T07:29:51.014Z,18.00
2019-02-05T07:32:20.025Z,20.70
2019-02-05T07:34:49.017Z,19.77
2019-02-05T07:37:18.151Z,21.40
2019-02-05T07:39:47.095Z,18.10
2019-02-05T07:42:16.254Z,24.47
2019-02-05T07:44:45.285Z,17.90
2019-02-05T07:47:14.375Z,23.07
2019-02-05T07:49:43.410Z,19.97
2019-02-05T07:52:12.491Z,23.37
2019-02-05T07:54:41.498Z,24.80
2019-02-05T07:57:10.611Z,21.23
2019-02-05T07:59:39.662Z,19.00
2019-02-05T08:02:08.753Z,22.43
2019-02-05T08:04:37.764Z,20.63
2019-02-05T08:07:07.694Z,24.60
2019-02-05T08:09:36.810Z,19.37
2019-02-05T08:12:05.933Z,28.03
2019-02-05T08:14:34.988Z,22.63
2019-02-05T08:17:04.031Z,18.70
2019-02-05T08:19:33.089Z,22.97
2019-02-05T08:22:02.435Z,20.73
2019-02-05T08:24:31.750Z,20.03
2019-02-05T08:27:00.795Z,19.83
2019-02-05T08:29:29.889Z,19.53
2019-02-05T08:31:58.919Z,22.20
2019-02-05T08:34:27.964Z,19.47
2019-02-05T08:36:57.027Z,20.10
2019-02-05T08:39:26.055Z,19.77
2019-02-05T08:41:55.391Z,18.03
2019-02-05T08:44:24.431Z,20.40
2019-02-05T08:46:53.664Z,22.03
2019-02-05T08:49:22.714Z,20.17
2019-02-05T08:51:51.778Z,19.73
2019-02-05T08:54:20.975Z,21.70
2019-02-05T08:56:50.007Z,18.17
2019-02-05T08:59:19.369Z,17.27
2019-02-05T09:01:48.356Z,20.97
2019-02-05T09:04:17.393Z,21.70
2019-02-05T09:06:46.380Z,20.23
2019-02-05T09:09:15.389Z,19.80
2019-02-05T09:11:44.334Z,23.10
2019-02-05T09:14:13.262Z,22.33
2019-02-05T09:16:42.735Z,17.97
2019-02-05T09:19:11.779Z,18.53
2019-02-05T09:21:40.822Z,18.20
2019-02-05T09:24:09.828Z,18.93
2019-02-05T09:26:38.910Z,21.57
2019-02-05T09:29:08.016Z,20.03
2019-02-05T09:31:37.078Z,20.60
2019-02-05T09:34:06.144Z,19.77
2019-02-05T09:36:35.201Z,22.23
2019-02-05T09:39:06.778Z,19.57
2019-02-05T09:41:35.797Z,19.60
2019-02-05T09:44:04.755Z,20.13
2019-02-05T09:46:33.785Z,20.63
2019-02-05T09:49:03.458Z,23.43
2019-02-05T09:51:32.590Z,24.70
2019-02-05T09:54:01.664Z,20.70
2019-02-05T09:56:30.773Z,23.43
2019-02-05T09:58:59.838Z,25.23
2019-02-05T10:01:28.879Z,19.73
2019-02-05T10:03:57.903Z,23.47
2019-02-05T10:06:27.097Z,23.47
2019-02-05T10:08:56.159Z,23.00
2019-02-05T10:11:25.192Z,24.87
2019-02-05T10:13:54.251Z,23.00
2019-02-05T10:16:23.316Z,24.40
2019-02-05T10:18:53.103Z,25.57
2019-02-05T10:21:22.151Z,26.50
2019-02-05T10:23:51.203Z,30.97
2019-02-05T10:26:20.286Z,27.67
2019-02-05T10:28:49.277Z,27.33
2019-02-05T10:31:18.342Z,30.23
2019-02-05T10:33:54.987Z,30.43
2019-02-05T10:36:18.248Z,25.13
2019-02-05T10:38:47.525Z,23.77
2019-02-05T10:41:16.711Z,24.17
2019-02-05T10:43:45.733Z,26.23
2019-02-05T10:46:14.835Z,24.93
2019-02-05T10:48:43.897Z,23.57
2019-02-05T10:51:13.051Z,21.60
2019-02-05T10:53:42.080Z,24.80
2019-02-05T10:56:11.406Z,24.20
2019-02-05T10:58:40.458Z,21.87
2019-02-05T11:01:09.691Z,26.83
2019-02-05T11:03:38.854Z,23.50
2019-02-05T11:06:07.909Z,22.80
2019-02-05T11:08:36.956Z,24.63
2019-02-05T11:11:06.005Z,23.13
2019-02-05T11:13:35.276Z,23.10
2019-02-05T11:16:04.430Z,29.40
2019-02-05T11:18:33.544Z,25.57
2019-02-05T11:21:04.472Z,21.67
2019-02-05T11:23:33.617Z,24.67
2019-02-05T12:28:36.200Z,33.50
2019-02-05T12:31:06.278Z,28.03
2019-02-05T12:33:35.407Z,29.40
2019-02-05T12:36:04.480Z,29.60
2019-02-05T12:38:44.580Z,26.80
2019-02-05T12:41:23.801Z,29.97
2019-02-05T12:43:50.599Z,27.87
2019-02-05T12:46:32.349Z,31.50
2019-02-05T12:49:02.206Z,24.23
2019-02-05T12:51:31.528Z,29.23
2019-02-05T12:54:29.123Z,29.43
2019-02-05T12:57:27.039Z,28.97
2019-02-05T13:00:04.022Z,26.13
2019-02-05T13:02:41.572Z,31.90
2019-02-05T13:05:11.420Z,27.33
2019-02-05T13:07:58.372Z,30.30
2019-02-05T13:10:33.522Z,33.70
2019-02-05T13:16:00.689Z,30.90
2019-02-05T13:18:29.825Z,30.27
2019-02-05T13:20:58.876Z,29.63
2019-02-05T13:23:28.007Z,31.53
2019-02-05T13:25:57.105Z,28.07
2019-02-05T13:28:29.248Z,29.13
2019-02-05T13:31:07.764Z,31.83
2019-02-05T13:33:30.147Z,26.33
2019-02-05T13:35:59.686Z,28.53
2019-02-05T13:38:31.574Z,26.57
2019-02-05T13:41:03.175Z,28.00
2019-02-05T13:44:01.034Z,27.77
2019-02-05T13:46:42.975Z,29.47
2019-02-05T13:49:35.659Z,29.17
2019-02-05T13:52:30.017Z,30.10
2019-02-05T13:55:05.708Z,27.20
2019-02-05T13:57:36.445Z,24.23
2019-02-05T14:00:08.692Z,29.27
2019-02-05T14:02:38.286Z,30.43
2019-02-05T14:05:08.920Z,28.80
2019-02-05T14:07:38.211Z,27.23
2019-02-05T14:10:11.391Z,26.73
2019-02-05T14:12:40.735Z,28.23
2019-02-05T14:15:10.577Z,26.43
2019-02-05T14:17:40.286Z,31.07
2019-02-05T14:20:10.437Z,27.23
2019-02-05T14:22:40.296Z,26.97
2019-02-05T14:25:14.451Z,28.60
2019-02-05T14:27:44.411Z,26.97
2019-02-05T14:30:20.311Z,29.67
2019-02-05T14:32:49.516Z,29.60
2019-02-05T14:38:49.999Z,23.73
2019-02-05T14:42:06.933Z,27.13
2019-02-05T14:44:42.979Z,27.67
2019-02-05T14:47:21.993Z,26.53
2019-02-05T14:49:51.224Z,31.53
2019-02-05T14:52:20.911Z,29.10
2019-02-05T14:54:53.291Z,24.67
2019-02-05T14:57:22.647Z,25.93
2019-02-05T14:59:51.991Z,25.23
2019-02-05T15:02:21.403Z,27.30
2019-02-05T15:04:51.108Z,27.87
2019-02-05T15:07:20.584Z,27.63
2019-02-05T15:09:50.085Z,27.27
2019-02-05T15:12:19.410Z,24.67
2019-02-05T15:14:48.680Z,30.40
2019-02-05T15:17:17.964Z,28.73
2019-02-05T15:19:47.245Z,27.97
2019-02-05T15:22:16.840Z,28.93
2019-02-05T16:27:07.643Z,23.63
2019-02-05T16:29:41.483Z,27.80
2019-02-05T16:32:17.647Z,24.63
2019-02-05T16:38:27.223Z,22.60
2019-02-05T16:41:01.818Z,25.73
2019-02-05T16:44:00.252Z,26.03
2019-02-05T16:46:52.596Z,27.60
2019-02-05T16:49:27.462Z,23.53
2019-02-05T16:52:41.523Z,26.47
2019-02-05T16:55:11.360Z,23.80
2019-02-05T16:57:41.621Z,22.67
2019-02-05T17:00:19.725Z,27.40
2019-02-05T17:02:49.412Z,27.53
2019-02-05T17:05:19.110Z,22.30
2019-02-05T17:07:48.526Z,22.73
2019-02-05T17:10:21.873Z,24.80
2019-02-05T17:12:51.386Z,20.57
2019-02-05T17:15:20.898Z,23.90
2019-02-05T17:17:50.742Z,24.57
2019-02-05T17:20:24.416Z,21.53
2019-02-05T17:22:53.903Z,19.50
2019-02-05T17:25:24.071Z,20.80
2019-02-05T17:27:53.470Z,20.27
2019-02-05T17:30:24.337Z,25.00
2019-02-05T17:32:53.435Z,21.73
2019-02-05T17:35:22.615Z,20.27
2019-02-05T17:37:51.733Z,21.80
2019-02-05T17:40:22.181Z,20.70
2019-02-05T17:42:51.533Z,18.37
2019-02-05T17:45:22.632Z,16.43
2019-02-05T17:47:51.884Z,19.37
2019-02-05T17:50:21.013Z,24.10
2019-02-05T17:52:50.196Z,21.40
2019-02-05T17:55:19.706Z,22.57
2019-02-05T17:57:48.774Z,22.37
2019-02-05T18:00:25.120Z,20.47
2019-02-05T18:02:53.966Z,23.67
2019-02-05T18:05:23.257Z,21.27
2019-02-05T18:07:52.326Z,21.90
2019-02-05T18:10:23.806Z,69.83
2019-02-05T18:12:52.796Z,22.47
2019-02-05T18:15:24.213Z,19.83
2019-02-05T18:17:53.502Z,19.30
2019-02-05T18:20:22.516Z,23.27
2019-02-05T18:22:52.061Z,20.27
2019-02-05T18:25:21.442Z,67.80
2019-02-05T18:27:50.578Z,27.97
2019-02-05T18:30:30.867Z,23.77
2019-02-05T18:33:05.574Z,20.93
2019-02-05T18:35:30.644Z,19.03
2019-02-05T18:37:59.825Z,21.13
2019-02-05T18:40:28.892Z,23.30
2019-02-05T18:42:57.926Z,20.03
2019-02-05T18:45:26.937Z,20.67
2019-02-05T18:47:56.216Z,16.80
2019-02-05T18:50:25.839Z,20.13
2019-02-05T18:52:54.987Z,18.57
2019-02-05T18:55:25.839Z,19.57
2019-02-05T18:57:54.941Z,17.33
2019-02-05T19:00:49.296Z,21.73
2019-02-05T19:03:18.417Z,17.77
2019-02-05T19:05:47.442Z,18.50
2019-02-05T19:08:16.973Z,16.83
2019-02-05T19:10:45.981Z,22.00
2019-02-05T19:13:15.040Z,18.47
2019-02-05T19:15:44.458Z,15.67
2019-02-05T19:18:13.516Z,17.13
2019-02-05T19:20:42.556Z,19.23
2019-02-05T19:23:11.673Z,18.10
2019-02-05T19:25:59.688Z,18.77
2019-02-05T19:28:33.526Z,17.70
2019-02-05T19:31:05.987Z,21.20
2019-02-05T19:33:34.979Z,21.37
2019-02-05T19:36:03.991Z,17.20
2019-02-05T19:38:33.083Z,20.10
2019-02-05T19:41:02.618Z,18.17
2019-02-05T19:43:31.632Z,18.53
2019-02-05T19:46:19.240Z,19.47
2019-02-05T19:48:54.360Z,17.17
2019-02-05T19:51:23.363Z,17.03
2019-02-05T19:53:54.002Z,14.50
2019-02-05T19:56:23.500Z,17.43
2019-02-05T19:58:52.636Z,15.97
2019-02-05T20:01:21.712Z,19.50
2019-02-05T20:03:50.750Z,17.07
2019-02-05T20:06:19.958Z,14.63
2019-02-05T20:08:49.094Z,16.47
2019-02-05T20:11:18.437Z,20.23
2019-02-05T20:13:47.497Z,19.07
2019-02-05T20:16:16.502Z,16.67
2019-02-05T20:18:45.595Z,16.67
2019-02-05T20:21:14.685Z,19.33
2019-02-05T20:23:43.771Z,20.97
2019-02-05T20:26:12.899Z,21.90
2019-02-05T20:28:41.900Z,18.13
2019-02-05T20:31:10.971Z,18.97
2019-02-05T20:33:49.758Z,17.80
2019-02-05T20:36:10.815Z,20.97
2019-02-05T20:38:39.925Z,19.37
2019-02-05T20:41:08.969Z,21.93
2019-02-05T20:43:45.189Z,21.87
2019-02-05T20:46:14.253Z,16.40
2019-02-05T20:48:43.248Z,18.87
2019-02-05T20:51:12.501Z,16.80
2019-02-05T20:53:41.479Z,20.80
2019-02-05T20:56:10.495Z,17.80
2019-02-05T20:58:39.523Z,19.47
2019-02-05T21:01:08.480Z,16.13
2019-02-05T21:03:37.567Z,17.37
2019-02-05T21:06:07.129Z,18.40
2019-02-05T21:08:36.137Z,19.67
2019-02-05T21:11:05.337Z,18.13
2019-02-05T21:13:34.430Z,17.63
2019-02-05T21:16:03.836Z,18.43
2019-02-05T21:18:32.905Z,18.63
2019-02-05T21:21:02.003Z,19.30
2019-02-05T21:23:30.942Z,17.30
2019-02-05T21:25:59.975Z,17.13
2019-02-05T21:28:29.008Z,17.97
2019-02-05T21:30:58.029Z,17.93
2019-02-05T21:33:27.594Z,18.97
2019-02-05T21:35:56.616Z,16.80
2019-02-05T21:38:25.682Z,17.13
2019-02-05T21:40:54.689Z,15.27
2019-02-05T21:43:23.789Z,16.10
2019-02-05T21:45:52.801Z,17.37
2019-02-05T21:48:22.165Z,18.00
2019-02-05T21:50:51.186Z,17.50
2019-02-05T21:53:20.251Z,16.50
2019-02-05T21:55:49.271Z,16.93
2019-02-05T21:58:18.339Z,14.83
2019-02-05T22:00:47.346Z,18.17
2019-02-05T22:03:16.361Z,14.13
2019-02-05T22:05:45.649Z,13.80
2019-02-05T22:08:14.658Z,13.93
2019-02-05T22:10:43.611Z,17.33
2019-02-05T22:13:12.649Z,15.93
2019-02-05T22:15:41.693Z,14.27
2019-02-05T22:18:10.684Z,15.43
2019-02-05T22:20:39.716Z,13.63
2019-02-05T22:23:09.008Z,13.97
2019-02-05T22:25:38.072Z,14.07
2019-02-05T22:28:07.075Z,14.20
2019-02-05T22:30:36.405Z,11.93
2019-02-05T22:33:05.597Z,13.60
2019-02-05T22:35:34.656Z,12.47
2019-02-05T22:38:03.673Z,12.83
2019-02-05T22:40:32.586Z,11.17
2019-02-05T22:43:01.961Z,13.90
2019-02-05T22:45:31.064Z,9.47
2019-02-05T22:48:00.054Z,10.17
2019-02-05T22:50:30.720Z,14.33
2019-02-05T22:53:00.341Z,8.43
2019-02-05T22:55:29.327Z,8.03
2019-02-05T22:57:58.289Z,7.90
2019-02-05T23:00:52.046Z,8.23
2019-02-05T23:03:59.672Z,6.47
2019-02-05T23:06:59.123Z,5.60
2019-02-05T23:09:35.534Z,6.03
2019-02-05T23:12:13.095Z,7.37
2019-02-05T23:14:42.517Z,6.87
2019-02-05T23:17:11.530Z,6.67
2019-02-05T23:19:40.615Z,5.47
2019-02-05T23:22:09.628Z,5.40
2019-02-05T23:24:38.676Z,6.00
2019-02-05T23:27:07.755Z,6.67
2019-02-05T23:29:36.816Z,5.33
2019-02-05T23:32:05.832Z,4.83
2019-02-05T23:34:34.805Z,7.27
2019-02-05T23:37:03.823Z,3.83
2019-02-05T23:39:32.856Z,5.40
2019-02-05T23:42:01.847Z,5.30
2019-02-05T23:44:30.840Z,5.30
2019-02-05T23:47:00.048Z,5.17
2019-02-05T23:49:29.110Z,5.33
2019-02-05T23:51:58.128Z,5.03
2019-02-05T23:54:27.039Z,5.03
2019-02-05T23:56:56.023Z,4.80
2019-02-05T23:59:25.029Z,5.07
